Time;durP1;ratioP1;P1;durP2;ratioP2;P2;SDS_P1;SDS_P2;PMS_P1;PMS_P2;Temp;Humidity;BMP_temperature;BMP_pressure;BME280_temperature;BME280_humidity;BME280_pressure;Samples;Min_cycle;Max_cycle;Signal;HPM_P1;HPM_P2
2023/07/03 00:00:35;;;;;;;6.55;3.60;;;;;;;22.06;48.12;98755.78;4405360;32;33995;-87
2023/07/03 00:03:04;;;;;;;8.10;3.25;;;;;;;22.05;47.72;98754.06;4405728;32;34961;-86
2023/07/03 00:05:31;;;;;;;7.07;3.33;;;;;;;21.65;49.10;98753.00;4405476;32;33801;-87
2023/07/03 00:07:59;;;;;;;10.65;3.75;;;;;;;21.84;48.98;98755.78;4399312;32;34099;-86
2023/07/03 00:10:27;;;;;;;10.05;3.72;;;;;;;22.04;48.27;98758.47;4405131;32;34054;-87
2023/07/03 00:12:54;;;;;;;8.68;4.15;;;;;;;21.95;48.40;98760.63;4404401;32;33923;-87
2023/07/03 00:15:22;;;;;;;6.68;3.45;;;;;;;21.93;48.50;98755.41;4403673;32;34379;-85
2023/07/03 00:17:49;;;;;;;7.93;3.97;;;;;;;22.02;48.31;98775.31;4402232;32;34643;-85
2023/07/03 00:20:18;;;;;;;7.78;3.67;;;;;;;21.81;48.55;98761.16;4401064;32;33511;-86
2023/07/03 00:22:51;;;;;;;9.80;4.35;;;;;;;21.57;49.33;98760.34;4402829;32;34068;-85
2023/07/03 00:25:19;;;;;;;7.65;4.00;;;;;;;21.90;48.41;98763.47;4397792;32;33579;-86
2023/07/03 00:27:47;;;;;;;5.68;3.20;;;;;;;21.70;49.29;98773.91;4402719;32;33690;-86
2023/07/03 00:30:15;;;;;;;8.77;3.78;;;;;;;21.92;48.81;98773.94;4403343;32;33456;-84
2023/07/03 00:32:43;;;;;;;7.82;3.80;;;;;;;21.79;49.05;98766.53;4403249;32;33819;-86
2023/07/03 00:35:10;;;;;;;7.60;3.30;;;;;;;21.95;48.63;98774.69;4403105;32;33319;-86
2023/07/03 00:37:38;;;;;;;9.70;4.22;;;;;;;22.15;48.54;98773.91;4403145;32;33315;-85
2023/07/03 00:40:06;;;;;;;6.75;3.47;;;;;;;21.87;49.34;98775.00;4403281;32;34034;-86
2023/07/03 00:42:34;;;;;;;9.75;3.67;;;;;;;21.81;48.83;98775.22;4402228;32;34139;-86
2023/07/03 00:45:04;;;;;;;9.60;4.12;;;;;;;21.55;49.20;98775.38;4402537;32;33685;-86
2023/07/03 00:47:32;;;;;;;8.15;4.28;;;;;;;21.33;50.19;98773.56;4402570;32;32049;-86
2023/07/03 00:49:59;;;;;;;6.85;3.40;;;;;;;21.34;50.19;98777.91;4402673;32;33826;-86
2023/07/03 00:52:27;;;;;;;10.20;3.97;;;;;;;21.25;50.61;98778.22;4401200;32;34257;-85
2023/07/03 00:54:55;;;;;;;8.77;4.18;;;;;;;21.36;50.42;98781.31;4401350;32;33656;-84
2023/07/03 00:57:23;;;;;;;8.00;4.22;;;;;;;21.16;51.06;98778.53;4401517;32;34621;-86
2023/07/03 00:59:50;;;;;;;9.07;4.20;;;;;;;21.14;50.95;98775.13;4401101;32;34008;-85
2023/07/03 01:02:25;;;;;;;8.43;4.25;;;;;;;20.95;51.50;98777.56;4402599;32;34877;-85
2023/07/03 01:05:04;;;;;;;7.80;4.22;;;;;;;20.88;51.81;98779.53;4379444;32;34527;-85
2023/07/03 01:07:33;;;;;;;8.85;4.87;;;;;;;21.16;51.17;98770.62;4387709;32;34090;-85
2023/07/03 01:10:09;;;;;;;7.82;4.03;;;;;;;20.81;52.04;98775.41;4388574;32;33643;-86
2023/07/03 01:12:39;;;;;;;10.13;4.68;;;;;;;21.05;51.56;98778.06;4386854;32;34138;-85
2023/07/03 01:15:09;;;;;;;8.07;4.35;;;;;;;20.79;52.41;98777.22;4401366;32;34222;-86
2023/07/03 01:17:40;;;;;;;8.80;5.03;;;;;;;21.02;52.13;98783.44;4388231;32;33130;-86
2023/07/03 01:20:13;;;;;;;8.85;4.10;;;;;;;21.32;51.12;98784.09;4389619;32;33468;-86
2023/07/03 01:22:46;;;;;;;8.60;4.57;;;;;;;21.24;51.13;98786.16;4388716;32;35114;-85
2023/07/03 01:25:19;;;;;;;7.72;4.65;;;;;;;21.16;51.64;98780.31;4400890;32;33952;-85
2023/07/03 01:27:50;;;;;;;9.25;5.18;;;;;;;21.40;50.76;98776.81;4389285;32;34067;-86
2023/07/03 01:30:21;;;;;;;7.95;4.72;;;;;;;21.19;51.22;98773.16;4388793;32;34027;-85
2023/07/03 01:32:51;;;;;;;9.60;4.68;;;;;;;21.17;51.50;98774.13;4376901;32;33992;-85
2023/07/03 01:35:19;;;;;;;10.27;4.20;;;;;;;20.80;52.68;98781.59;4388908;32;34002;-84
2023/07/03 01:37:48;;;;;;;9.07;4.80;;;;;;;20.86;52.43;98780.50;4389329;32;33123;-96
2023/07/03 01:40:19;;;;;;;8.63;4.85;;;;;;;20.47;53.64;98782.72;4388327;32;33768;-85
2023/07/03 01:42:46;;;;;;;8.45;4.90;;;;;;;20.48;53.37;98777.38;4388813;32;32482;-84
2023/07/03 01:45:14;;;;;;;10.13;4.53;;;;;;;20.53;53.51;98783.41;4388382;32;33732;-95
2023/07/03 01:47:42;;;;;;;7.87;4.72;;;;;;;20.88;53.10;98778.69;4388894;32;34347;-96
2023/07/03 01:50:15;;;;;;;9.63;4.50;;;;;;;21.02;52.51;98776.41;4401646;32;33938;-85
2023/07/03 01:52:51;;;;;;;7.68;4.75;;;;;;;21.17;52.10;98767.06;4385546;32;34018;-85
2023/07/03 01:55:58;;;;;;;9.13;5.22;;;;;;;21.16;51.95;98772.41;4387318;32;33889;-96
2023/07/03 01:58:47;;;;;;;9.40;4.47;;;;;;;21.33;51.57;98778.84;4370242;32;33197;-94
2023/07/03 02:01:21;;;;;;;9.30;5.00;;;;;;;21.23;51.78;98780.03;4386113;32;34242;-84
2023/07/03 02:03:53;;;;;;;8.80;5.03;;;;;;;20.74;53.00;98788.84;4390151;32;33902;-85
2023/07/03 02:06:23;;;;;;;8.90;4.70;;;;;;;20.92;52.77;98787.34;4390100;32;33761;-85
2023/07/03 02:08:52;;;;;;;9.40;5.03;;;;;;;20.86;52.95;98783.13;4390616;32;34270;-86
2023/07/03 02:11:22;;;;;;;8.57;5.00;;;;;;;20.90;52.72;98782.97;4389121;32;33643;-84
2023/07/03 02:13:50;;;;;;;9.82;4.90;;;;;;;20.75;53.05;98778.22;4402502;32;33303;-85
2023/07/03 02:16:19;;;;;;;7.80;4.75;;;;;;;20.75;53.34;98780.00;4403718;32;33183;-85
2023/07/03 02:18:47;;;;;;;8.93;5.37;;;;;;;20.63;53.49;98783.94;4403401;32;33457;-85
2023/07/03 02:21:16;;;;;;;8.75;5.18;;;;;;;20.56;53.68;98785.91;4388449;32;33971;-85
2023/07/03 02:23:44;;;;;;;8.30;5.32;;;;;;;20.60;53.67;98784.88;4389825;32;34177;-86
2023/07/03 02:26:13;;;;;;;9.57;5.60;;;;;;;20.64;53.53;98790.91;4403421;32;34800;-84
2023/07/03 02:28:42;;;;;;;10.18;4.90;;;;;;;20.77;53.17;98792.22;4403050;32;34282;-87
2023/07/03 02:31:11;;;;;;;9.63;5.30;;;;;;;20.55;53.70;98792.09;4389063;32;34601;-86
2023/07/03 02:33:39;;;;;;;9.10;5.20;;;;;;;20.65;53.63;98788.25;4390272;32;32726;-86
2023/07/03 02:36:06;;;;;;;9.77;5.35;;;;;;;20.50;54.11;98793.19;4403690;32;33973;-86
2023/07/03 02:38:34;;;;;;;9.65;5.50;;;;;;;20.45;54.13;98797.69;4403806;32;33121;-86
2023/07/03 02:41:03;;;;;;;10.45;5.70;;;;;;;20.40;54.55;98793.44;4389952;32;33977;-86
2023/07/03 02:43:33;;;;;;;9.98;5.75;;;;;;;20.34;54.58;98795.41;4390059;32;34257;-85
2023/07/03 02:46:03;;;;;;;9.13;5.57;;;;;;;20.35;54.66;98802.41;4403714;32;34245;-86
2023/07/03 02:48:31;;;;;;;9.52;5.30;;;;;;;20.42;54.41;98791.63;4400700;32;34140;-85
2023/07/03 02:50:59;;;;;;;12.32;6.12;;;;;;;20.60;54.25;98794.56;4401952;32;34046;-85
2023/07/03 02:53:27;;;;;;;8.38;5.15;;;;;;;20.27;54.90;98791.28;4390264;32;34331;-86
2023/07/03 02:55:56;;;;;;;9.38;5.62;;;;;;;20.37;55.05;98793.53;4403232;32;33598;-86
2023/07/03 02:58:25;;;;;;;9.43;5.62;;;;;;;20.35;54.91;98807.69;4403600;32;34122;-85
2023/07/03 03:00:54;;;;;;;9.38;5.62;;;;;;;20.53;54.30;98798.31;4388380;32;33901;-85
2023/07/03 03:03:23;;;;;;;9.18;5.47;;;;;;;20.49;54.60;98801.94;4403507;32;33801;-93
2023/07/03 03:05:50;;;;;;;11.32;6.20;;;;;;;20.58;54.32;98806.94;4387660;32;34503;-86
2023/07/03 03:08:21;;;;;;;9.27;5.18;;;;;;;20.48;54.12;98811.59;4403249;32;33042;-86
2023/07/03 03:10:53;;;;;;;11.20;5.45;;;;;;;20.42;54.51;98817.94;4389768;32;33690;-86
2023/07/03 03:13:21;;;;;;;10.52;5.87;;;;;;;20.12;55.34;98808.41;4402085;32;33980;-95
2023/07/03 03:15:49;;;;;;;8.98;5.53;;;;;;;19.83;56.28;98801.41;4403472;32;34674;-86
2023/07/03 03:18:17;;;;;;;10.27;5.37;;;;;;;19.97;55.89;98798.38;4403590;32;33668;-85
2023/07/03 03:20:44;;;;;;;10.98;5.65;;;;;;;19.81;56.30;98798.84;4387841;32;34044;-91
2023/07/03 03:23:13;;;;;;;10.27;5.82;;;;;;;20.14;55.18;98798.69;4402913;32;34137;-85
2023/07/03 03:25:41;;;;;;;9.05;5.60;;;;;;;20.41;54.98;98805.69;4402438;32;34025;-86
2023/07/03 03:28:09;;;;;;;11.63;5.95;;;;;;;20.55;54.79;98801.78;4389529;32;34296;-86
2023/07/03 03:30:38;;;;;;;11.63;5.60;;;;;;;20.44;55.13;98815.25;4402889;32;33416;-86
2023/07/03 03:33:06;;;;;;;9.75;5.47;;;;;;;20.45;55.13;98816.12;4402673;32;34840;-87
2023/07/03 03:35:34;;;;;;;10.90;6.12;;;;;;;20.43;55.23;98810.91;4402894;32;33758;-86
2023/07/03 03:38:01;;;;;;;9.90;6.20;;;;;;;20.55;54.98;98813.16;4402691;32;33603;-87
2023/07/03 03:40:29;;;;;;;9.23;5.40;;;;;;;20.26;55.19;98819.34;4403044;32;33620;-87
2023/07/03 03:42:58;;;;;;;11.95;5.97;;;;;;;20.38;55.33;98818.97;4389242;32;33888;-86
2023/07/03 03:45:26;;;;;;;10.75;5.30;;;;;;;20.14;55.68;98817.09;4403263;32;33988;-86
2023/07/03 03:47:53;;;;;;;8.15;5.12;;;;;;;19.96;55.89;98817.66;4403289;32;33057;-87
2023/07/03 03:50:21;;;;;;;11.07;5.97;;;;;;;20.03;56.16;98819.22;4403409;32;33993;-85
2023/07/03 03:52:49;;;;;;;8.98;5.37;;;;;;;20.25;55.37;98820.25;4402915;32;34127;-87
2023/07/03 03:55:16;;;;;;;10.10;5.07;;;;;;;20.86;53.89;98823.50;4403898;32;33987;-86
2023/07/03 03:57:44;;;;;;;9.82;5.37;;;;;;;21.08;53.15;98826.28;4404050;32;36258;-87
2023/07/03 04:00:16;;;;;;;9.88;4.95;;;;;;;20.92;53.17;98827.72;4402734;32;32964;-85
2023/07/03 04:02:45;;;;;;;12.30;6.65;;;;;;;21.03;53.01;98830.84;4404140;32;35101;-88
2023/07/03 04:05:12;;;;;;;9.38;5.18;;;;;;;21.22;52.65;98825.78;4403781;32;34029;-86
2023/07/03 04:07:40;;;;;;;8.82;4.95;;;;;;;21.13;52.82;98828.72;4403719;32;33524;-87
2023/07/03 04:10:08;;;;;;;10.82;5.75;;;;;;;21.51;51.26;98826.50;4404848;32;33921;-86
2023/07/03 04:12:35;;;;;;;10.60;5.65;;;;;;;20.89;52.98;98828.69;4403888;32;33937;-86
2023/07/03 04:15:04;;;;;;;9.93;5.15;;;;;;;20.98;52.61;98835.41;4405004;32;34530;-87
2023/07/03 04:17:32;;;;;;;11.75;5.50;;;;;;;21.71;50.80;98831.06;4390766;32;33345;-87
2023/07/03 04:19:59;;;;;;;11.52;5.55;;;;;;;21.76;50.54;98840.50;4391359;32;34218;-88
2023/07/03 04:22:27;;;;;;;10.02;4.90;;;;;;;21.81;50.55;98838.56;4404675;32;33790;-90
2023/07/03 04:24:54;;;;;;;8.57;5.05;;;;;;;22.21;49.45;98839.69;4404144;32;33491;-88
2023/07/03 04:27:22;;;;;;;9.90;5.00;;;;;;;22.70;47.72;98840.31;4407079;32;34795;-88
2023/07/03 04:29:49;;;;;;;11.43;5.75;;;;;;;22.86;47.65;98842.31;4405103;32;34927;-89
2023/07/03 04:32:17;;;;;;;11.82;5.35;;;;;;;23.39;46.70;98847.09;4404911;32;34012;-88
2023/07/03 04:34:45;;;;;;;14.52;5.32;;;;;;;23.61;46.53;98839.91;4404344;32;34918;-87
2023/07/03 04:37:13;;;;;;;9.73;5.32;;;;;;;23.67;45.62;98834.34;4403677;32;33572;-88
2023/07/03 04:39:41;;;;;;;9.82;4.95;;;;;;;24.15;45.18;98840.09;4390579;32;34628;-87
2023/07/03 04:42:13;;;;;;;9.93;5.20;;;;;;;24.68;44.18;98847.22;4402628;32;34819;-87
2023/07/03 04:44:41;;;;;;;11.52;5.20;;;;;;;24.28;44.54;98839.44;4391252;32;33528;-87
2023/07/03 04:47:09;;;;;;;10.55;5.72;;;;;;;23.75;45.11;98845.47;4390574;32;33421;-85
2023/07/03 04:49:36;;;;;;;8.43;4.47;;;;;;;24.17;44.25;98838.22;4402841;32;33681;-87
2023/07/03 04:52:05;;;;;;;9.95;5.35;;;;;;;24.68;43.56;98853.38;4405088;32;34979;-88
2023/07/03 04:54:32;;;;;;;10.95;4.95;;;;;;;24.87;42.94;98850.69;4404786;32;34536;-87
2023/07/03 04:56:59;;;;;;;10.85;5.00;;;;;;;24.89;42.75;98847.94;4404264;32;34192;-87
2023/07/03 04:59:27;;;;;;;9.23;5.05;;;;;;;25.18;42.59;98846.47;4403174;32;33860;-87
2023/07/03 05:01:55;;;;;;;10.90;5.18;;;;;;;25.59;42.01;98843.44;4404397;32;34029;-88
2023/07/03 05:04:22;;;;;;;9.93;4.90;;;;;;;25.67;41.55;98844.72;4403522;32;33891;-88
2023/07/03 05:06:51;;;;;;;9.80;4.75;;;;;;;25.25;41.96;98853.19;4402802;32;33509;-88
2023/07/03 05:09:18;;;;;;;11.95;4.68;;;;;;;25.83;42.23;98857.22;4417155;32;34364;-87
2023/07/03 05:11:48;;;;;;;9.80;5.20;;;;;;;25.70;41.58;98852.53;4404990;32;33836;-95
2023/07/03 05:14:16;;;;;;;8.38;4.70;;;;;;;25.39;41.00;98855.97;4403386;32;33769;-89
2023/07/03 05:16:44;;;;;;;10.65;4.35;;;;;;;26.05;40.89;98857.75;4405900;32;34544;-88
2023/07/03 05:19:13;;;;;;;8.13;4.43;;;;;;;26.64;40.25;98856.19;4417025;32;34589;-87
2023/07/03 05:21:41;;;;;;;10.90;4.80;;;;;;;27.06;40.45;98853.75;4419691;32;33926;-89
2023/07/03 05:24:08;;;;;;;8.30;4.37;;;;;;;26.30;39.64;98861.72;4417661;32;33920;-88
2023/07/03 05:26:36;;;;;;;7.97;4.25;;;;;;;26.71;39.49;98863.81;4393023;32;33760;-88
2023/07/03 05:29:03;;;;;;;8.65;4.45;;;;;;;26.30;40.16;98865.22;4418474;32;32346;-88
2023/07/03 05:31:31;;;;;;;9.50;4.20;;;;;;;27.09;39.20;98873.06;4403776;32;33432;-92
2023/07/03 05:33:58;;;;;;;9.10;4.50;;;;;;;27.08;39.04;98868.66;4415855;32;34101;-88
2023/07/03 05:36:26;;;;;;;8.63;4.22;;;;;;;27.46;39.00;98878.84;4420608;32;34275;-88
2023/07/03 05:38:53;;;;;;;8.85;4.75;;;;;;;27.51;38.81;98882.09;4407798;32;34789;-88
2023/07/03 05:41:22;;;;;;;7.22;3.85;;;;;;;27.51;38.06;98882.09;4418973;32;34959;-88
2023/07/03 05:43:50;;;;;;;10.38;4.80;;;;;;;27.58;37.68;98885.25;4421101;32;35322;-88
2023/07/03 05:46:18;;;;;;;7.82;3.90;;;;;;;26.97;38.38;98894.19;4419590;32;33542;-88
2023/07/03 05:48:46;;;;;;;8.20;3.72;;;;;;;27.51;37.22;98887.44;4422492;32;33974;-88
2023/07/03 05:51:13;;;;;;;8.65;4.15;;;;;;;27.92;37.35;98888.50;4424216;32;34150;-87
2023/07/03 05:53:42;;;;;;;9.18;4.20;;;;;;;28.00;37.34;98889.75;4406141;32;33558;-88
2023/07/03 05:56:10;;;;;;;8.82;4.20;;;;;;;27.85;38.14;98888.03;4418822;32;33142;-88
2023/07/03 05:58:37;;;;;;;9.88;4.20;;;;;;;28.00;37.63;98897.72;4414310;32;33687;-87
2023/07/03 06:01:05;;;;;;;11.50;4.00;;;;;;;28.31;37.91;98898.44;4419884;32;35041;-88
2023/07/03 06:03:32;;;;;;;8.25;4.10;;;;;;;27.81;37.42;98906.03;4421291;32;33948;-87
2023/07/03 06:06:00;;;;;;;10.13;4.65;;;;;;;27.82;36.54;98910.37;4405953;32;32096;-89
2023/07/03 06:08:28;;;;;;;7.82;3.90;;;;;;;27.80;35.38;98906.94;4421528;32;33805;-88
2023/07/03 06:10:55;;;;;;;10.43;4.90;;;;;;;27.36;36.61;98904.34;4421626;32;34533;-88
2023/07/03 06:13:23;;;;;;;12.02;3.90;;;;;;;27.62;36.26;98895.63;4418417;32;34754;-88
2023/07/03 06:15:50;;;;;;;12.43;4.50;;;;;;;27.52;36.97;98902.44;4422170;32;33704;-93
2023/07/03 06:18:18;;;;;;;7.00;3.92;;;;;;;27.84;35.72;98899.62;4421710;32;33601;-89
2023/07/03 06:20:46;;;;;;;8.95;4.78;;;;;;;27.71;36.94;98909.31;4421912;32;33788;-90
2023/07/03 06:23:14;;;;;;;12.10;3.70;;;;;;;28.07;35.56;98904.41;4421959;32;33632;-90
2023/07/03 06:25:42;;;;;;;7.25;3.47;;;;;;;28.09;35.91;98906.94;4406838;32;33540;-89
2023/07/03 06:28:10;;;;;;;8.60;3.80;;;;;;;28.13;35.69;98909.31;4420344;32;34875;-90
2023/07/03 06:30:37;;;;;;;7.55;3.87;;;;;;;27.78;35.86;98905.34;4421275;32;35034;-90
2023/07/03 06:33:05;;;;;;;8.52;3.75;;;;;;;27.33;35.74;98896.53;4421336;32;34137;-89
2023/07/03 06:35:32;;;;;;;8.25;3.15;;;;;;;27.50;35.67;98892.81;4421135;32;33155;-89
2023/07/03 06:38:02;;;;;;;7.45;3.83;;;;;;;28.05;35.11;98884.97;4421554;32;33983;-91
2023/07/03 06:40:30;;;;;;;9.60;4.30;;;;;;;27.76;34.76;98875.28;4421265;32;33735;-90
2023/07/03 06:42:58;;;;;;;8.18;3.78;;;;;;;27.82;34.57;98885.56;4421478;32;34749;-86
2023/07/03 06:45:26;;;;;;;7.65;3.40;;;;;;;28.05;35.69;98890.28;4407555;32;32920;-91
2023/07/03 06:47:54;;;;;;;7.55;3.35;;;;;;;27.81;33.93;98900.69;4420934;32;33997;-90
2023/07/03 06:50:22;;;;;;;12.37;3.90;;;;;;;28.56;34.12;98892.41;4421631;32;33916;-90
2023/07/03 06:52:49;;;;;;;12.95;4.18;;;;;;;28.02;32.38;98898.47;4421445;32;33550;-92
2023/07/03 06:55:17;;;;;;;11.98;4.70;;;;;;;28.32;32.70;98897.47;4407551;32;33387;-90
2023/07/03 06:57:45;;;;;;;9.38;4.62;;;;;;;27.57;32.68;98895.03;4421526;32;33931;-90
2023/07/03 07:00:12;;;;;;;10.80;4.57;;;;;;;27.65;32.56;98906.09;4415204;32;35184;-90
2023/07/03 07:02:40;;;;;;;10.20;5.12;;;;;;;27.83;31.46;98908.59;4405908;32;34891;-89
2023/07/03 07:05:08;;;;;;;11.07;5.22;;;;;;;28.11;30.44;98897.91;4406027;32;34566;-91
2023/07/03 07:07:35;;;;;;;12.65;5.75;;;;;;;28.29;29.21;98900.34;4419675;32;33519;-90
2023/07/03 07:10:03;;;;;;;15.00;5.07;;;;;;;28.62;29.59;98900.84;4421187;32;33936;-90
2023/07/03 07:12:31;;;;;;;11.32;5.12;;;;;;;28.34;29.71;98900.94;4421492;32;33872;-89
2023/07/03 07:14:58;;;;;;;9.35;4.50;;;;;;;29.09;30.19;98904.91;4421327;32;34121;-89
2023/07/03 07:17:26;;;;;;;8.32;4.50;;;;;;;29.23;29.28;98903.09;4420730;32;33545;-91
2023/07/03 07:20:14;;;;;;;11.45;5.20;;;;;;;29.24;27.92;98902.13;4421292;32;33976;-89
2023/07/03 07:22:41;;;;;;;11.50;5.30;;;;;;;28.71;28.12;98902.06;4421069;32;34721;-89
2023/07/03 07:25:09;;;;;;;9.73;5.22;;;;;;;28.94;26.88;98903.19;4421164;32;34300;-91
2023/07/03 07:27:36;;;;;;;10.40;5.32;;;;;;;28.70;28.71;98896.84;4421205;32;33698;-90
2023/07/03 07:30:05;;;;;;;10.95;5.50;;;;;;;29.04;29.33;98901.66;4421203;32;33907;-90
2023/07/03 07:32:32;;;;;;;11.30;5.10;;;;;;;28.38;28.49;98888.28;4421424;32;33825;-91
2023/07/03 07:35:00;;;;;;;7.90;4.15;;;;;;;28.73;28.39;98893.97;4421417;32;33393;-90
2023/07/03 07:37:27;;;;;;;10.32;4.35;;;;;;;28.33;31.77;98904.53;4420312;32;34812;-89
2023/07/03 07:39:55;;;;;;;8.43;4.60;;;;;;;28.66;31.53;98898.00;4407052;32;34691;-89
2023/07/03 07:42:22;;;;;;;13.05;5.22;;;;;;;29.44;31.11;98903.44;4421191;32;34288;-93
2023/07/03 07:44:50;;;;;;;11.63;5.25;;;;;;;29.10;29.41;98892.41;4420013;32;33206;-91
2023/07/03 07:47:17;;;;;;;10.40;4.75;;;;;;;29.59;29.52;98905.09;4419502;32;33923;-90
2023/07/03 07:49:45;;;;;;;9.70;4.90;;;;;;;29.53;28.61;98909.00;4420816;32;34013;-91
2023/07/03 07:52:15;;;;;;;10.30;5.22;;;;;;;29.17;29.50;98906.16;4420110;32;34221;-91
2023/07/03 07:54:42;;;;;;;10.25;4.87;;;;;;;29.14;30.22;98903.72;4420609;32;34614;-91
2023/07/03 07:57:10;;;;;;;10.73;5.37;;;;;;;29.62;30.36;98914.69;4417857;32;33950;-91
2023/07/03 07:59:37;;;;;;;9.70;5.50;;;;;;;29.84;29.90;98925.59;4410914;32;33902;-91
2023/07/03 08:02:06;;;;;;;10.63;5.70;;;;;;;29.73;27.94;98912.13;4405569;32;33903;-91
2023/07/03 08:04:33;;;;;;;10.63;5.43;;;;;;;29.44;28.40;98917.66;4420160;32;34411;-92
2023/07/03 08:07:01;;;;;;;13.23;6.00;;;;;;;29.09;27.63;98910.22;4420618;32;34713;-91
2023/07/03 08:09:28;;;;;;;11.80;6.18;;;;;;;29.36;27.98;98906.66;4420995;32;34928;-92
2023/07/03 08:11:56;;;;;;;12.23;6.20;;;;;;;29.63;27.46;98909.25;4420198;32;34753;-88
2023/07/03 08:14:24;;;;;;;13.25;6.65;;;;;;;28.85;28.38;98902.00;4405742;32;33512;-89
2023/07/03 08:16:51;;;;;;;14.68;7.10;;;;;;;29.28;27.97;98911.63;4408175;32;33592;-89
2023/07/03 08:19:19;;;;;;;12.10;7.10;;;;;;;28.20;29.19;98911.59;4419656;32;34826;-89
2023/07/03 08:21:46;;;;;;;13.57;6.95;;;;;;;28.47;29.14;98915.19;4420482;32;33543;-88
2023/07/03 08:24:14;;;;;;;12.93;7.07;;;;;;;28.66;28.99;98914.00;4420967;32;33123;-91
2023/07/03 08:26:45;;;;;;;13.98;7.75;;;;;;;28.26;30.58;98916.53;4420799;32;34667;-90
2023/07/03 08:29:12;;;;;;;10.93;6.97;;;;;;;28.49;30.16;98913.28;4406642;32;33867;-91
2023/07/03 08:31:40;;;;;;;12.57;7.18;;;;;;;28.49;29.59;98918.63;4407094;32;33588;-91
2023/07/03 08:34:10;;;;;;;18.00;8.57;;;;;;;28.45;29.19;98914.44;4420819;32;34007;-92
2023/07/03 08:36:37;;;;;;;12.18;6.62;;;;;;;28.85;29.93;98915.34;4420581;32;34747;-90
2023/07/03 08:39:08;;;;;;;15.25;7.65;;;;;;;28.75;28.07;98922.28;4407545;32;34198;-91
2023/07/03 08:41:46;;;;;;;12.25;6.85;;;;;;;29.07;28.23;98919.28;4394322;32;33797;-91
2023/07/03 08:44:15;;;;;;;13.27;7.30;;;;;;;28.77;28.35;98916.81;4420378;32;33620;-91
2023/07/03 08:46:43;;;;;;;14.05;7.45;;;;;;;28.99;28.62;98922.47;4406569;32;33576;-91
2023/07/03 08:49:23;;;;;;;15.25;7.93;;;;;;;29.08;28.40;98924.50;4406671;32;33949;-90
2023/07/03 08:51:52;;;;;;;14.98;8.63;;;;;;;29.02;27.74;98926.75;4420074;32;34196;-90
2023/07/03 08:54:27;;;;;;;17.37;9.65;;;;;;;29.13;26.68;98928.69;4406601;32;34054;-92
2023/07/03 08:56:56;;;;;;;14.87;8.07;;;;;;;29.01;26.22;98927.69;4406556;32;33759;-91
2023/07/03 08:59:24;;;;;;;16.75;8.27;;;;;;;29.07;26.83;98922.81;4405699;32;33771;-88
2023/07/03 09:02:10;;;;;;;16.17;8.35;;;;;;;29.28;27.12;98931.19;4419995;32;33996;-91
2023/07/03 09:04:44;;;;;;;15.35;8.50;;;;;;;28.90;27.81;98924.84;4406549;32;34372;-85
2023/07/03 09:07:23;;;;;;;17.73;8.98;;;;;;;29.65;26.03;98926.00;4420340;32;34009;-91
2023/07/03 09:10:10;;;;;;;14.23;8.55;;;;;;;29.39;26.58;98930.44;4420464;32;35208;-88
2023/07/03 09:12:43;;;;;;;16.25;8.10;;;;;;;29.43;25.00;98931.94;4420479;32;34464;-90
2023/07/03 09:15:31;;;;;;;13.45;7.80;;;;;;;29.27;26.57;98937.47;4406362;32;34320;-91
2023/07/03 09:18:01;;;;;;;14.38;7.97;;;;;;;29.37;26.59;98931.53;4406379;32;34018;-92
2023/07/03 09:20:29;;;;;;;12.82;7.40;;;;;;;29.40;26.70;98934.84;4419776;32;34258;-90
2023/07/03 09:23:05;;;;;;;16.35;8.57;;;;;;;29.12;26.90;98924.31;4420443;32;33585;-90
2023/07/03 09:25:41;;;;;;;12.23;7.05;;;;;;;29.52;27.61;98925.97;4406276;32;34219;-89
2023/07/03 09:28:11;;;;;;;15.10;7.80;;;;;;;29.53;25.80;98927.69;4406141;32;33687;-90
2023/07/03 09:30:39;;;;;;;15.35;7.72;;;;;;;29.70;26.48;98933.69;4419934;32;34076;-88
2023/07/03 09:33:07;;;;;;;13.38;8.07;;;;;;;29.83;25.03;98934.56;4420117;32;34136;-92
2023/07/03 09:35:41;;;;;;;13.88;8.07;;;;;;;29.05;25.75;98924.72;4406116;32;33519;-90
2023/07/03 09:38:17;;;;;;;17.87;7.78;;;;;;;29.34;26.88;98932.59;4420037;32;33773;-90
2023/07/03 09:40:48;;;;;;;13.73;7.72;;;;;;;29.76;26.10;98939.47;4419951;32;35268;-89
2023/07/03 09:43:20;;;;;;;13.15;7.72;;;;;;;29.75;25.42;98936.94;4406066;32;33618;-90
2023/07/03 09:45:50;;;;;;;13.30;7.57;;;;;;;29.91;25.41;98934.87;4419706;32;34042;-88
2023/07/03 09:48:24;;;;;;;13.73;7.85;;;;;;;30.01;25.52;98938.62;4406194;32;33627;-90
2023/07/03 09:50:52;;;;;;;14.52;7.93;;;;;;;29.94;26.09;98941.84;4418876;32;34005;-89
2023/07/03 09:53:38;;;;;;;15.63;7.55;;;;;;;29.71;26.20;98938.09;4407688;32;34318;-88
2023/07/03 09:56:12;;;;;;;14.98;9.23;;;;;;;29.89;26.48;98928.81;4405281;32;33555;-87
2023/07/03 09:58:54;;;;;;;15.10;9.13;;;;;;;29.13;26.95;98940.22;4417009;32;34911;-91
2023/07/03 10:01:27;;;;;;;18.98;9.10;;;;;;;29.03;27.30;98944.47;4404965;32;33858;-88
2023/07/03 10:04:14;;;;;;;14.80;8.02;;;;;;;28.94;27.76;98935.22;4405838;32;33689;-89
2023/07/03 10:07:05;;;;;;;13.30;7.70;;;;;;;28.58;28.87;98939.34;4409003;32;33365;-91
2023/07/03 10:09:36;;;;;;;16.50;8.07;;;;;;;28.94;27.84;98937.88;4419084;32;33602;-91
2023/07/03 10:12:25;;;;;;;12.60;6.97;;;;;;;29.29;27.56;98940.06;4405475;32;33284;-91
2023/07/03 10:15:06;;;;;;;13.77;7.43;;;;;;;29.05;27.20;98937.22;4419061;32;34081;-91
2023/07/03 10:17:38;;;;;;;13.90;8.48;;;;;;;29.30;26.24;98931.09;4392453;32;32787;-89
2023/07/03 10:20:11;;;;;;;14.48;7.97;;;;;;;29.60;25.11;98933.50;4405493;32;34646;-92
2023/07/03 10:22:40;;;;;;;15.88;7.55;;;;;;;29.21;26.36;98932.56;4390830;32;34091;-89
2023/07/03 10:25:14;;;;;;;12.57;7.85;;;;;;;29.47;26.36;98925.47;4406355;32;34984;-91
2023/07/03 10:27:42;;;;;;;12.93;7.78;;;;;;;29.51;27.53;98932.28;4399966;32;33760;-90
2023/07/03 10:30:15;;;;;;;13.38;7.05;;;;;;;29.58;28.82;98933.59;4407305;32;34716;-89
2023/07/03 10:32:46;;;;;;;15.05;7.18;;;;;;;29.79;27.54;98931.25;4421398;32;34282;-89
2023/07/03 10:35:22;;;;;;;15.15;7.32;;;;;;;29.86;29.17;98929.00;4407521;32;33725;-89
2023/07/03 10:38:11;;;;;;;13.32;7.60;;;;;;;29.54;27.83;98937.41;4407144;32;33218;-89
2023/07/03 10:41:03;;;;;;;12.80;6.97;;;;;;;29.39;26.55;98941.13;4407403;32;34604;-89
2023/07/03 10:43:35;;;;;;;14.70;7.75;;;;;;;29.85;27.98;98937.97;4407160;32;35108;-92
2023/07/03 10:46:06;;;;;;;15.15;8.07;;;;;;;30.19;25.33;98924.91;4406731;32;34221;-88
2023/07/03 10:48:35;;;;;;;16.10;7.72;;;;;;;29.96;25.46;98924.72;4407180;32;33696;-88
2023/07/03 10:51:21;;;;;;;12.82;7.22;;;;;;;29.91;25.69;98932.22;4420497;32;34876;-88
2023/07/03 10:53:56;;;;;;;12.55;7.65;;;;;;;30.19;26.72;98935.63;4407716;32;34993;-90
2023/07/03 10:56:35;;;;;;;11.70;6.57;;;;;;;29.83;28.10;98945.25;4421362;32;33790;-93
2023/07/03 10:59:11;;;;;;;15.80;7.45;;;;;;;29.57;28.03;98941.69;4407757;32;34427;-89
2023/07/03 11:01:54;;;;;;;15.32;7.65;;;;;;;29.38;28.61;98939.44;4407067;32;35069;-91
2023/07/03 11:04:33;;;;;;;12.15;7.07;;;;;;;29.28;29.45;98944.56;4421161;32;34183;-92
2023/07/03 11:07:04;;;;;;;18.58;8.07;;;;;;;29.89;27.47;98939.50;4407686;32;33512;-92
2023/07/03 11:09:51;;;;;;;14.48;7.62;;;;;;;29.57;27.98;98937.22;4421455;32;33147;-89
2023/07/03 11:12:26;;;;;;;12.60;7.93;;;;;;;29.98;27.81;98944.19;4407364;32;34759;-93
2023/07/03 11:15:10;;;;;;;12.98;7.87;;;;;;;29.64;27.04;98951.03;4407716;32;35139;-91
2023/07/03 11:18:32;;;;;;;14.85;8.02;;;;;;;29.43;28.30;98942.63;4407402;32;34103;-92
2023/07/03 11:21:08;;;;;;;14.25;7.90;;;;;;;29.64;29.87;98950.19;4355720;32;33292;-90
2023/07/03 11:23:58;;;;;;;13.80;8.38;;;;;;;29.47;28.67;98938.81;4411897;32;33990;-88
2023/07/03 11:26:33;;;;;;;16.60;8.48;;;;;;;29.66;27.05;98937.56;4420544;32;33838;-90
2023/07/03 11:29:10;;;;;;;16.62;8.90;;;;;;;29.60;27.43;98941.53;4407692;32;32856;-88
2023/07/03 11:31:43;;;;;;;14.38;8.57;;;;;;;29.36;28.90;98946.69;4392496;32;33628;-91
2023/07/03 11:34:13;;;;;;;13.93;8.35;;;;;;;29.87;28.12;98936.06;4406164;32;34051;-89
2023/07/03 11:36:49;;;;;;;16.90;8.88;;;;;;;29.82;28.79;98932.88;4412169;32;34150;-92
2023/07/03 11:39:33;;;;;;;14.05;8.80;;;;;;;29.70;29.11;98941.72;4415174;32;34113;-89
2023/07/03 11:42:05;;;;;;;15.52;8.40;;;;;;;29.65;27.62;98942.03;4419777;32;34401;-88
2023/07/03 11:44:46;;;;;;;16.50;9.63;;;;;;;29.73;27.87;98938.84;4420840;32;33787;-85